createdAt,value
2022-12-20T00:02:53.862Z,100347.19
2022-12-20T00:07:56.159Z,100365.09
2022-12-20T00:12:58.369Z,100382.66
2022-12-20T00:18:01.222Z,100400.56
2022-12-20T00:23:03.998Z,100360.22
2022-12-20T00:28:06.259Z,100373.34
2022-12-20T00:33:08.464Z,100384.00
2022-12-20T00:38:10.770Z,100343.22
2022-12-20T00:43:13.294Z,100373.66
2022-12-20T00:48:15.525Z,100315.88
2022-12-20T00:53:22.641Z,100239.41
2022-12-20T00:58:29.082Z,100361.53
2022-12-20T01:03:32.566Z,100290.69
2022-12-20T01:08:34.958Z,100299.94
2022-12-20T01:13:39.271Z,100342.09
2022-12-20T01:18:41.934Z,100293.13
2022-12-20T01:23:44.553Z,100308.09
2022-12-20T01:28:48.229Z,100296.44
2022-12-20T01:33:51.712Z,100248.81
2022-12-20T01:39:16.050Z,100240.28
2022-12-20T01:44:18.184Z,100351.53
2022-12-20T01:49:33.248Z,100283.25
2022-12-20T01:54:59.627Z,100278.56
2022-12-20T02:00:02.310Z,100290.38
2022-12-20T02:05:18.223Z,100186.31
2022-12-20T02:10:24.513Z,100299.91
2022-12-20T02:15:36.312Z,100314.34
2022-12-20T02:21:06.609Z,100314.09
2022-12-20T02:26:27.405Z,100297.81
2022-12-20T02:31:50.602Z,100162.94
2022-12-20T02:36:53.271Z,100266.25
2022-12-20T02:41:58.926Z,100248.94
2022-12-20T02:47:03.484Z,100270.47
2022-12-20T02:52:06.275Z,100211.63
2022-12-20T02:57:22.918Z,100260.16
2022-12-20T03:02:25.980Z,100187.31
2022-12-20T03:07:29.587Z,100205.84
2022-12-20T03:12:32.525Z,100174.53
2022-12-20T03:17:35.247Z,100096.78
2022-12-20T03:22:38.790Z,100183.97
2022-12-20T03:27:41.285Z,100071.47
2022-12-20T03:32:44.898Z,100146.44
2022-12-20T03:37:47.736Z,100197.47
2022-12-20T03:42:50.085Z,100122.66
2022-12-20T03:47:52.305Z,100146.63
2022-12-20T03:52:55.671Z,100176.03
2022-12-20T03:58:00.477Z,100086.81
2022-12-20T04:03:07.208Z,100081.66
2022-12-20T04:08:10.000Z,100073.91
2022-12-20T04:13:12.366Z,100061.66
2022-12-20T04:18:14.713Z,100060.00
2022-12-20T04:23:17.736Z,99990.25
2022-12-20T04:28:20.795Z,100019.72
2022-12-20T04:33:25.348Z,100085.94
2022-12-20T04:38:27.792Z,100108.00
2022-12-20T04:43:30.457Z,100132.25
2022-12-20T04:48:56.383Z,100061.25
2022-12-20T04:53:58.039Z,100033.28
2022-12-20T04:59:08.999Z,100077.63
2022-12-20T05:04:11.917Z,100086.53
2022-12-20T05:09:14.539Z,100088.59
2022-12-20T05:14:17.027Z,100044.22
2022-12-20T05:19:19.435Z,99957.25
2022-12-20T05:24:40.592Z,100059.19
2022-12-20T05:30:01.006Z,100022.84
2022-12-20T05:35:06.133Z,99971.22
2022-12-20T05:40:10.048Z,100064.75
2022-12-20T05:45:13.525Z,100011.19
2022-12-20T05:50:24.902Z,99993.88
2022-12-20T05:55:48.908Z,100032.44
2022-12-20T06:00:51.671Z,99996.91
2022-12-20T06:05:54.885Z,100000.22
2022-12-20T06:11:04.967Z,100001.25
2022-12-20T06:16:13.851Z,100030.72
2022-12-20T06:21:17.880Z,99978.47
2022-12-20T06:26:26.278Z,99997.47
2022-12-20T06:31:29.803Z,100016.94
2022-12-20T06:36:32.255Z,99948.97
2022-12-20T06:41:36.054Z,99992.50
2022-12-20T06:46:38.465Z,99998.69
2022-12-20T06:51:41.232Z,99885.97
2022-12-20T06:56:44.030Z,99898.16
2022-12-20T07:01:48.134Z,99889.38
2022-12-20T07:06:50.599Z,99834.16
2022-12-20T07:11:52.979Z,99831.63
2022-12-20T07:16:55.454Z,99821.63
2022-12-20T07:21:57.813Z,99854.34
2022-12-20T07:27:00.323Z,99798.16
2022-12-20T07:32:03.608Z,99857.34
2022-12-20T07:37:05.954Z,99877.06
2022-12-20T07:42:09.694Z,99839.63
2022-12-20T07:47:17.669Z,99769.81
2022-12-20T07:52:21.861Z,99812.66
2022-12-20T07:57:28.266Z,99843.56
2022-12-20T08:02:39.383Z,99793.34
2022-12-20T08:07:43.792Z,99756.56
2022-12-20T08:12:48.618Z,99733.13
2022-12-20T08:17:51.399Z,99742.34
2022-12-20T08:22:53.720Z,99771.22
2022-12-20T08:27:56.359Z,99715.16
2022-12-20T08:32:58.608Z,99696.25
2022-12-20T08:38:00.910Z,99701.47
2022-12-20T08:43:09.750Z,99718.81
2022-12-20T08:48:12.346Z,99770.47
2022-12-20T08:53:14.588Z,99686.88
2022-12-20T08:58:17.015Z,99692.28
2022-12-20T09:03:19.581Z,99753.22
2022-12-20T09:08:21.884Z,99684.88
2022-12-20T09:13:24.124Z,99673.94
2022-12-20T09:18:26.354Z,99607.38
2022-12-20T09:23:29.434Z,99719.03
2022-12-20T09:28:32.771Z,99703.84
2022-12-20T09:33:35.618Z,99640.94
2022-12-20T09:38:37.874Z,99665.72
2022-12-20T09:43:41.994Z,99554.66
2022-12-20T09:48:44.942Z,99632.41
2022-12-20T09:53:56.180Z,99643.22
2022-12-20T09:59:07.266Z,99584.66
2022-12-20T10:04:22.315Z,99580.56
2022-12-20T10:09:33.901Z,99629.13
2022-12-20T10:14:41.987Z,99616.63
2022-12-20T10:20:04.811Z,99609.28
2022-12-20T10:25:25.353Z,99537.41
2022-12-20T10:30:33.201Z,99581.19
2022-12-20T10:35:41.164Z,99560.47
2022-12-20T10:41:21.196Z,99582.59
2022-12-20T10:46:18.154Z,99558.44
2022-12-20T10:51:22.860Z,99513.81
2022-12-20T10:56:30.394Z,99568.63
2022-12-20T11:01:36.000Z,99523.38
2022-12-20T11:06:38.363Z,99554.69
2022-12-20T11:12:00.179Z,99509.91
2022-12-20T11:17:25.821Z,99515.00
2022-12-20T11:22:56.623Z,99539.38
2022-12-20T11:28:12.349Z,99540.81
2022-12-20T11:33:36.463Z,99540.59
2022-12-20T11:38:42.673Z,99533.34
2022-12-20T11:44:31.186Z,99510.41
2022-12-20T11:50:04.834Z,99488.69
2022-12-20T11:55:12.858Z,99526.13
2022-12-20T12:00:16.358Z,99451.06
2022-12-20T12:05:25.733Z,99497.53
2022-12-20T12:10:32.845Z,99530.91
2022-12-20T12:15:39.089Z,99530.84
2022-12-20T12:20:48.720Z,99526.75
2022-12-20T12:25:51.320Z,99513.34
2022-12-20T12:31:15.769Z,99486.50
2022-12-20T12:36:36.140Z,99523.38
2022-12-20T12:42:09.468Z,99515.97
2022-12-20T12:47:20.321Z,99520.72
2022-12-20T12:52:50.838Z,99455.06
2022-12-20T12:57:59.589Z,99494.31
2022-12-20T13:03:06.374Z,99513.56
2022-12-20T13:08:18.617Z,99439.03
2022-12-20T13:13:23.145Z,99489.56
2022-12-20T13:18:25.950Z,99385.34
2022-12-20T13:23:28.179Z,99416.47
2022-12-20T13:28:30.332Z,99500.78
2022-12-20T13:33:49.237Z,99471.66
2022-12-20T13:38:53.729Z,99377.91
2022-12-20T13:43:57.480Z,99505.41
2022-12-20T13:49:11.006Z,99482.81
2022-12-20T13:54:26.861Z,99450.91
2022-12-20T13:59:33.517Z,99441.88
2022-12-20T14:04:44.433Z,99440.66
2022-12-20T14:09:56.477Z,99365.53
2022-12-20T14:14:58.954Z,99332.09
2022-12-20T14:20:17.813Z,99474.50
2022-12-20T14:25:32.064Z,99441.56
2022-12-20T14:30:43.229Z,99434.69
2022-12-20T14:35:49.324Z,99366.19
2022-12-20T14:40:54.203Z,99325.59
2022-12-20T14:46:19.837Z,99474.66
2022-12-20T14:51:22.417Z,99395.91
2022-12-20T14:56:31.500Z,99465.31
2022-12-20T15:01:38.534Z,99439.16
2022-12-20T15:06:46.172Z,99420.06
2022-12-20T15:11:49.243Z,99428.47
2022-12-20T15:16:52.385Z,99349.16
2022-12-20T15:21:55.113Z,99482.78
2022-12-20T15:26:57.563Z,99471.06
2022-12-20T15:32:13.733Z,99435.41
2022-12-20T15:37:18.736Z,99449.88
2022-12-20T15:42:23.192Z,99440.41
2022-12-20T15:47:25.385Z,99456.47
2022-12-20T15:52:27.850Z,99404.34
2022-12-20T15:57:31.092Z,99413.91
2022-12-20T16:02:33.654Z,99338.59
2022-12-20T16:07:36.062Z,99424.47
2022-12-20T16:12:38.865Z,99430.53
2022-12-20T16:17:41.282Z,99391.56
2022-12-20T16:22:45.116Z,99375.84
2022-12-20T16:27:49.025Z,99408.38
2022-12-20T16:32:51.501Z,99433.25
2022-12-20T16:37:55.967Z,99451.66
2022-12-20T16:42:59.788Z,99434.63
2022-12-20T16:48:02.114Z,99415.09
2022-12-20T16:53:04.466Z,99441.81
2022-12-20T16:58:06.790Z,99445.91
2022-12-20T17:03:09.135Z,99413.34
2022-12-20T17:13:27.693Z,99418.75
2022-12-20T17:18:29.959Z,99314.41
2022-12-20T17:23:44.073Z,99451.72
2022-12-20T17:28:46.914Z,99418.25
2022-12-20T17:33:49.149Z,99443.56
2022-12-20T17:38:51.539Z,99249.38
2022-12-20T17:43:59.603Z,99366.09
2022-12-20T17:49:01.875Z,99428.13
2022-12-20T17:54:04.288Z,99317.59
2022-12-20T17:59:06.555Z,99356.66
2022-12-20T18:04:11.260Z,99346.81
2022-12-20T18:09:18.899Z,99418.88
2022-12-20T18:14:21.196Z,99428.88
2022-12-20T18:19:23.487Z,99419.75
2022-12-20T18:24:26.099Z,99467.78
2022-12-20T18:29:28.963Z,99470.81
2022-12-20T18:34:31.529Z,99437.13
2022-12-20T18:39:34.056Z,99437.13
2022-12-20T18:44:36.486Z,99411.66
2022-12-20T18:49:38.904Z,99447.63
2022-12-20T18:54:41.321Z,99420.25
2022-12-20T18:59:43.790Z,99415.72
2022-12-20T19:04:49.020Z,99366.59
2022-12-20T19:09:51.301Z,99299.56
2022-12-20T19:15:04.002Z,99480.03
2022-12-20T19:20:07.257Z,99344.28
2022-12-20T19:25:09.805Z,99259.69
2022-12-20T19:30:12.294Z,99424.75
2022-12-20T19:35:52.859Z,99263.97
2022-12-20T19:40:37.228Z,99421.34
2022-12-20T19:45:39.659Z,99344.91
2022-12-20T19:50:41.900Z,99442.69
2022-12-20T19:55:53.023Z,99479.53
2022-12-20T20:00:55.965Z,99459.50
2022-12-20T20:05:58.664Z,99457.06
2022-12-20T20:11:08.789Z,99416.63
2022-12-20T20:16:15.483Z,99407.94
2022-12-20T20:21:23.304Z,99422.69
2022-12-20T20:26:27.417Z,99452.72
2022-12-20T20:31:29.802Z,99323.28
2022-12-20T20:36:32.135Z,99464.75
2022-12-20T20:41:34.523Z,99478.50
2022-12-20T20:46:36.828Z,99497.31
2022-12-20T20:51:39.206Z,99446.41
2022-12-20T20:56:41.645Z,99386.56
2022-12-20T21:01:43.936Z,99425.78
2022-12-20T21:06:46.802Z,99418.75
2022-12-20T21:11:49.223Z,99459.00
2022-12-20T21:16:51.499Z,99448.50
2022-12-20T21:21:53.817Z,99489.00
2022-12-20T21:26:57.218Z,99466.88
2022-12-20T21:31:59.548Z,99480.50
2022-12-20T21:37:01.871Z,99385.75
2022-12-20T21:42:04.254Z,99289.34
2022-12-20T21:47:06.630Z,99315.06
2022-12-20T21:52:08.840Z,99457.00
2022-12-20T21:57:11.622Z,99469.00
2022-12-20T22:02:14.731Z,99238.91
2022-12-20T22:07:17.116Z,99288.84
2022-12-20T22:12:19.520Z,99439.63
2022-12-20T22:17:21.714Z,99445.78
2022-12-20T22:22:25.630Z,99401.63
2022-12-20T22:27:27.928Z,99415.88
2022-12-20T22:32:31.932Z,99415.22
2022-12-20T22:37:34.171Z,99441.09
2022-12-20T22:42:40.155Z,99423.59
2022-12-20T22:47:42.504Z,99389.59
2022-12-20T22:52:44.792Z,99416.66
2022-12-20T22:57:48.122Z,99449.22
2022-12-20T23:02:50.711Z,99364.78
2022-12-20T23:07:52.997Z,99397.91
2022-12-20T23:13:21.143Z,99338.50
2022-12-20T23:18:23.437Z,99426.16
2022-12-20T23:23:25.728Z,99402.84
2022-12-20T23:28:27.939Z,99354.72
2022-12-20T23:33:30.255Z,99393.34
2022-12-20T23:38:33.731Z,99388.75
2022-12-20T23:43:36.676Z,99399.53
2022-12-20T23:48:39.245Z,99435.88
2022-12-20T23:53:41.512Z,99425.03
2022-12-20T23:58:45.053Z,99380.56
